Time;durP1;ratioP1;P1;durP2;ratioP2;P2;SDS_P1;SDS_P2;PMS_P1;PMS_P2;Temp;Humidity;BMP_temperature;BMP_pressure;BME280_temperature;BME280_humidity;BME280_pressure;Samples;Min_cycle;Max_cycle;Signal;HPM_P1;HPM_P2
2021/10/04 00:01:12;;;;;;;10.68;6.63;;;;;;;13.71;100.00;102013.75;5116976;28;20035;-72
2021/10/04 00:03:58;;;;;;;10.50;6.82;;;;;;;13.67;100.00;102015.53;5103471;28;20069;-72
2021/10/04 00:06:43;;;;;;;11.23;6.82;;;;;;;14.05;100.00;102009.88;5117082;28;20024;-72
2021/10/04 00:09:29;;;;;;;10.43;6.72;;;;;;;14.12;100.00;102012.41;5102575;28;20037;-72
2021/10/04 00:12:15;;;;;;;14.85;6.88;;;;;;;14.26;100.00;102014.91;5101856;28;20043;-73
2021/10/04 00:15:03;;;;;;;13.73;7.32;;;;;;;13.72;100.00;102010.22;5117179;28;20116;-72
2021/10/04 00:17:49;;;;;;;11.52;7.80;;;;;;;13.19;100.00;102000.16;5116966;28;20062;-72
2021/10/04 00:20:35;;;;;;;12.48;7.45;;;;;;;13.67;100.00;102002.34;5103304;28;20115;-73
2021/10/04 00:23:21;;;;;;;11.00;6.82;;;;;;;13.53;100.00;102003.38;5115916;28;20352;-72
2021/10/04 00:26:07;;;;;;;13.32;7.15;;;;;;;13.94;100.00;102007.34;5116592;28;20035;-72
2021/10/04 00:28:53;;;;;;;9.82;6.80;;;;;;;14.13;100.00;102008.91;5115343;28;20076;-74
2021/10/04 00:31:39;;;;;;;11.20;7.07;;;;;;;13.86;100.00;102011.81;5116280;28;20039;-74
2021/10/04 00:34:25;;;;;;;12.40;6.72;;;;;;;14.11;100.00;102009.81;5116603;28;20111;-73
2021/10/04 00:37:10;;;;;;;15.52;7.60;;;;;;;14.25;100.00;102008.78;5116682;28;20333;-73
2021/10/04 00:39:56;;;;;;;9.60;6.55;;;;;;;14.07;100.00;102003.69;5115216;28;20051;-72
2021/10/04 00:42:42;;;;;;;12.65;7.05;;;;;;;13.89;100.00;102003.91;5116170;28;20092;-72
2021/10/04 00:45:30;;;;;;;10.32;6.82;;;;;;;13.92;100.00;102003.00;5101706;28;20499;-72
2021/10/04 00:48:16;;;;;;;13.25;7.15;;;;;;;13.87;100.00;102002.19;5116993;28;20027;-73
2021/10/04 00:51:03;;;;;;;13.32;7.40;;;;;;;13.78;100.00;102003.13;5100938;28;20413;-73
2021/10/04 00:53:51;;;;;;;11.40;6.75;;;;;;;14.11;100.00;101999.28;5116790;28;20023;-73
2021/10/04 00:56:38;;;;;;;9.50;6.47;;;;;;;14.10;100.00;102001.03;5115504;28;20046;-73
2021/10/04 00:59:23;;;;;;;10.13;7.45;;;;;;;13.83;100.00;101996.03;5115566;28;20031;-73
2021/10/04 01:02:09;;;;;;;11.23;7.32;;;;;;;13.94;100.00;101988.91;5115273;28;20511;-73
2021/10/04 01:04:55;;;;;;;13.52;6.90;;;;;;;13.65;100.00;101983.06;5100494;28;20057;-74
2021/10/04 01:07:41;;;;;;;21.42;15.18;;;;;;;13.77;100.00;101985.59;5116503;28;20039;-72
2021/10/04 01:10:27;;;;;;;26.75;16.30;;;;;;;13.43;100.00;101980.66;5100827;28;20083;-72
2021/10/04 01:13:13;;;;;;;25.00;16.85;;;;;;;13.66;100.00;101987.44;5116069;28;20035;-73
2021/10/04 01:15:59;;;;;;;26.55;17.85;;;;;;;13.58;100.00;101983.13;5115748;28;20023;-72
2021/10/04 01:18:45;;;;;;;25.73;17.83;;;;;;;13.51;100.00;101987.59;5101105;28;20027;-73
2021/10/04 01:21:30;;;;;;;31.80;18.98;;;;;;;13.14;100.00;101980.91;5115553;28;20016;-73
2021/10/04 01:24:16;;;;;;;32.25;20.80;;;;;;;13.50;100.00;101982.31;5115636;28;20036;-73
2021/10/04 01:27:04;;;;;;;32.25;21.13;;;;;;;13.69;100.00;101982.16;5115776;28;20019;-73
2021/10/04 01:29:49;;;;;;;26.40;18.33;;;;;;;13.64;100.00;101975.19;5115443;28;20020;-72
2021/10/04 01:32:35;;;;;;;25.85;17.77;;;;;;;13.50;100.00;101983.22;5114404;28;20023;-73
2021/10/04 01:35:22;;;;;;;27.50;17.25;;;;;;;13.67;100.00;101983.91;5115818;28;20031;-73
2021/10/04 01:38:08;;;;;;;26.70;18.45;;;;;;;13.80;100.00;101985.56;5115101;28;20027;-73
2021/10/04 01:40:54;;;;;;;25.38;17.65;;;;;;;13.85;100.00;101994.28;5100156;28;20019;-72
2021/10/04 01:43:40;;;;;;;26.88;18.60;;;;;;;13.83;100.00;101990.78;5115502;28;20020;-72
2021/10/04 01:46:26;;;;;;;22.65;15.77;;;;;;;13.73;100.00;101996.16;5115116;28;20096;-73
2021/10/04 01:49:11;;;;;;;22.65;13.27;;;;;;;13.60;100.00;101994.53;5115462;28;20032;-73
2021/10/04 01:51:57;;;;;;;19.05;13.57;;;;;;;13.72;100.00;101994.41;5113870;28;20051;-74
2021/10/04 01:54:43;;;;;;;15.13;10.50;;;;;;;13.54;100.00;101990.19;5100641;28;20027;-73
2021/10/04 01:57:29;;;;;;;13.10;9.45;;;;;;;13.53;100.00;101988.47;5114836;28;20070;-72
2021/10/04 02:00:17;;;;;;;13.98;10.27;;;;;;;13.69;100.00;101986.53;5115283;28;20088;-73
2021/10/04 02:03:03;;;;;;;20.52;10.77;;;;;;;13.63;100.00;101983.97;5115290;28;20034;-73
2021/10/04 02:05:49;;;;;;;18.13;11.23;;;;;;;13.71;100.00;101983.00;5114318;28;20026;-72
2021/10/04 02:08:36;;;;;;;27.23;14.43;;;;;;;13.43;100.00;101984.16;5099290;28;20023;-73
2021/10/04 02:11:21;;;;;;;22.88;15.27;;;;;;;13.56;100.00;101988.44;5098710;28;20047;-73
2021/10/04 02:14:07;;;;;;;20.77;15.90;;;;;;;13.42;100.00;101984.19;5115041;28;20106;-72
2021/10/04 02:16:53;;;;;;;24.75;17.80;;;;;;;13.54;100.00;101990.19;5114490;28;20370;-72
2021/10/04 02:19:39;;;;;;;28.83;19.60;;;;;;;13.10;100.00;101992.34;5114986;28;20110;-73
2021/10/04 02:22:25;;;;;;;27.63;20.95;;;;;;;13.14;100.00;101994.06;5114714;28;20037;-72
2021/10/04 02:25:12;;;;;;;32.60;22.40;;;;;;;13.30;100.00;101994.81;5114774;28;20023;-72
2021/10/04 02:27:58;;;;;;;34.30;22.80;;;;;;;13.29;100.00;101991.31;5113453;28;20035;-73
2021/10/04 02:30:46;;;;;;;35.80;23.58;;;;;;;13.19;100.00;101997.50;5114584;28;20019;-73
2021/10/04 02:33:32;;;;;;;37.33;25.02;;;;;;;13.03;100.00;101995.88;5113922;28;20106;-72
2021/10/04 02:36:23;;;;;;;37.03;24.88;;;;;;;13.12;100.00;101998.47;5114690;28;20091;-73
2021/10/04 02:39:09;;;;;;;35.42;23.67;;;;;;;13.06;100.00;101993.25;5114390;28;20059;-72
2021/10/04 02:41:55;;;;;;;36.83;24.83;;;;;;;13.24;100.00;101992.22;5114737;28;20024;-74
2021/10/04 02:44:41;;;;;;;36.58;25.17;;;;;;;13.09;100.00;101994.97;5100045;28;20031;-72
2021/10/04 02:47:27;;;;;;;32.17;24.48;;;;;;;13.09;100.00;101990.59;5113846;28;20036;-73
2021/10/04 02:50:16;;;;;;;36.05;24.73;;;;;;;13.06;100.00;101995.88;5114558;28;20023;-72
2021/10/04 02:53:02;;;;;;;34.08;24.60;;;;;;;13.07;100.00;102002.00;5113921;28;20028;-73
2021/10/04 02:55:48;;;;;;;33.15;24.48;;;;;;;13.05;100.00;101998.50;5114714;28;20096;-73
2021/10/04 02:58:33;;;;;;;36.70;24.95;;;;;;;13.11;100.00;102009.84;5099443;28;20356;-71
2021/10/04 03:01:19;;;;;;;35.50;24.40;;;;;;;13.00;100.00;102006.44;5114775;28;20011;-71
2021/10/04 03:04:05;;;;;;;29.90;21.77;;;;;;;12.93;100.00;102003.81;5112998;28;20023;-71
2021/10/04 03:06:51;;;;;;;32.63;21.67;;;;;;;12.75;100.00;102015.34;5112764;28;20046;-71
2021/10/04 03:09:36;;;;;;;32.80;21.05;;;;;;;12.62;100.00;102004.91;5098818;28;20126;-70
2021/10/04 03:12:22;;;;;;;27.33;19.17;;;;;;;12.63;100.00;102010.16;5099738;28;20494;-72
2021/10/04 03:15:08;;;;;;;25.50;18.90;;;;;;;12.63;100.00;102010.16;5113954;28;20397;-72
2021/10/04 03:17:54;;;;;;;28.55;19.02;;;;;;;12.60;100.00;102015.44;5113152;28;20460;-72
2021/10/04 03:20:40;;;;;;;29.25;18.98;;;;;;;12.67;100.00;102017.16;5113629;28;20023;-71
2021/10/04 03:23:26;;;;;;;30.17;19.33;;;;;;;12.98;100.00;102015.25;5114647;28;20474;-72
2021/10/04 03:26:12;;;;;;;33.28;19.05;;;;;;;12.39;100.00;102018.16;5118161;28;20424;-71
2021/10/04 03:28:58;;;;;;;32.60;18.85;;;;;;;11.95;100.00;102025.31;5116897;28;20376;-72
2021/10/04 03:31:44;;;;;;;28.40;17.70;;;;;;;11.82;100.00;102020.94;5103071;28;20107;-72
2021/10/04 03:34:30;;;;;;;28.27;18.50;;;;;;;11.86;100.00;102019.19;5102558;28;20114;-73
2021/10/04 03:37:16;;;;;;;38.85;26.77;;;;;;;11.96;100.00;102018.28;5102779;28;20020;-71
2021/10/04 03:40:04;;;;;;;35.42;22.38;;;;;;;12.06;100.00;102020.88;5102765;28;20034;-71
2021/10/04 03:42:50;;;;;;;38.28;23.52;;;;;;;11.63;100.00;102023.59;5117112;28;20076;-71
2021/10/04 03:45:36;;;;;;;35.15;20.50;;;;;;;11.75;100.00;102029.72;5101510;28;20031;-71
2021/10/04 03:48:22;;;;;;;31.38;19.27;;;;;;;11.83;100.00;102024.44;5117942;28;20019;-71
2021/10/04 03:51:08;;;;;;;31.88;18.38;;;;;;;12.04;100.00;102025.28;5102428;28;20015;-72
2021/10/04 03:53:54;;;;;;;31.77;18.90;;;;;;;12.14;100.00;102021.72;5102836;28;20020;-71
2021/10/04 03:56:40;;;;;;;37.88;20.10;;;;;;;12.30;100.00;102020.81;5117747;28;20034;-71
2021/10/04 03:59:25;;;;;;;33.15;20.23;;;;;;;11.94;100.00;102026.16;5116718;28;20086;-71
2021/10/04 04:02:12;;;;;;;34.58;19.58;;;;;;;11.56;100.00;102029.69;5116696;28;20030;-71
2021/10/04 04:04:58;;;;;;;30.42;19.42;;;;;;;11.42;100.00;102039.34;5100564;28;20020;-72
2021/10/04 04:07:43;;;;;;;31.98;21.15;;;;;;;11.54;100.00;102042.81;5117575;28;20344;-71
2021/10/04 04:10:29;;;;;;;38.78;24.77;;;;;;;11.31;100.00;102049.84;5116439;28;20528;-70
2021/10/04 04:13:15;;;;;;;35.72;22.92;;;;;;;11.22;100.00;102047.22;5117349;28;20102;-71
2021/10/04 04:16:01;;;;;;;29.08;20.30;;;;;;;11.28;100.00;102043.69;5116735;28;20114;-71
2021/10/04 04:18:47;;;;;;;34.20;20.15;;;;;;;11.67;100.00;102043.72;5114812;28;20100;-72
2021/10/04 04:21:34;;;;;;;26.50;17.17;;;;;;;11.75;100.00;102048.09;5116778;28;20042;-71
2021/10/04 04:24:19;;;;;;;27.45;16.63;;;;;;;11.85;100.00;102049.81;5116358;28;20019;-71
2021/10/04 04:27:07;;;;;;;27.73;16.60;;;;;;;11.46;100.00;102055.09;5116682;28;20106;-71
2021/10/04 04:29:52;;;;;;;30.75;17.35;;;;;;;11.46;100.00;102047.22;5117298;28;20031;-71
2021/10/04 04:32:39;;;;;;;33.97;17.15;;;;;;;11.50;100.00;102064.72;5116726;28;20350;-71
2021/10/04 04:35:25;;;;;;;22.63;16.05;;;;;;;11.42;100.00;102061.22;5116393;28;20532;-71
2021/10/04 04:38:11;;;;;;;27.85;16.27;;;;;;;11.54;100.00;102053.31;5116572;28;20052;-71
2021/10/04 04:40:57;;;;;;;24.77;16.02;;;;;;;11.49;100.00;102052.44;5116431;28;20167;-72
2021/10/04 04:43:43;;;;;;;22.45;15.82;;;;;;;11.55;100.00;102047.22;5116624;28;20093;-71
2021/10/04 04:46:29;;;;;;;25.08;14.63;;;;;;;11.64;100.00;102051.59;5101551;28;20023;-72
2021/10/04 04:49:14;;;;;;;26.30;14.98;;;;;;;11.69;100.00;102057.75;5116723;28;20024;-72
2021/10/04 04:52:01;;;;;;;25.27;15.35;;;;;;;12.02;100.00;102055.06;5115106;28;20019;-72
2021/10/04 04:54:46;;;;;;;25.02;15.07;;;;;;;12.17;100.00;102049.78;5116708;28;20055;-72
2021/10/04 04:57:32;;;;;;;24.40;14.57;;;;;;;12.21;100.00;102062.88;5101177;28;20035;-72
2021/10/04 05:00:18;;;;;;;25.77;13.75;;;;;;;11.69;100.00;102060.38;5116450;28;20144;-71
2021/10/04 05:03:07;;;;;;;25.73;14.07;;;;;;;11.94;100.00;102059.47;5115324;28;20062;-72
2021/10/04 05:05:52;;;;;;;25.05;14.45;;;;;;;12.26;100.00;102066.38;5114906;28;20337;-71
2021/10/04 05:08:38;;;;;;;24.30;13.43;;;;;;;12.12;100.00;102065.53;5116191;28;20039;-71
2021/10/04 05:11:24;;;;;;;24.65;12.65;;;;;;;12.61;100.00;102069.75;5115678;28;20356;-71
2021/10/04 05:14:10;;;;;;;23.35;12.88;;;;;;;12.44;100.00;102073.31;5116089;28;20030;-72
2021/10/04 05:16:55;;;;;;;19.17;11.70;;;;;;;12.27;100.00;102072.50;5114916;28;20028;-72
2021/10/04 05:19:41;;;;;;;17.95;12.07;;;;;;;12.72;100.00;102073.22;5116447;28;20038;-73
2021/10/04 05:22:27;;;;;;;26.67;11.95;;;;;;;12.94;100.00;102076.63;5115854;28;20402;-71
2021/10/04 05:25:13;;;;;;;21.40;11.20;;;;;;;12.47;100.00;102078.56;5101071;28;20069;-72
2021/10/04 05:27:59;;;;;;;17.10;10.25;;;;;;;12.27;100.00;102078.66;5114335;28;20106;-71
2021/10/04 05:30:46;;;;;;;18.80;9.82;;;;;;;12.62;100.00;102079.38;5115101;28;20114;-72
2021/10/04 05:33:32;;;;;;;19.10;10.52;;;;;;;12.77;100.00;102081.06;5114896;28;20034;-73
2021/10/04 05:36:17;;;;;;;25.38;10.55;;;;;;;12.93;100.00;102078.38;5114931;28;20031;-72
2021/10/04 05:39:03;;;;;;;19.05;10.40;;;;;;;12.98;100.00;102070.50;5114920;28;20027;-71
2021/10/04 05:41:49;;;;;;;19.77;10.55;;;;;;;13.07;100.00;102076.53;5100529;28;20030;-72
2021/10/04 05:44:35;;;;;;;18.30;9.98;;;;;;;13.08;100.00;102075.69;5115952;28;20110;-72
2021/10/04 05:47:21;;;;;;;21.90;10.65;;;;;;;12.96;100.00;102073.09;5114057;28;20051;-72
2021/10/04 05:50:07;;;;;;;15.02;10.73;;;;;;;13.24;100.00;102064.19;5115415;28;20047;-72
2021/10/04 05:52:53;;;;;;;15.90;10.73;;;;;;;13.50;100.00;102071.84;5114837;28;20452;-72
2021/10/04 05:55:39;;;;;;;22.95;11.18;;;;;;;13.79;100.00;102075.16;5100298;28;20019;-73
2021/10/04 05:58:25;;;;;;;18.65;10.45;;;;;;;13.96;100.00;102075.84;5114978;28;20052;-71
2021/10/04 06:01:11;;;;;;;18.10;10.05;;;;;;;13.81;100.00;102078.63;5115018;28;20115;-72
2021/10/04 06:03:56;;;;;;;17.60;9.82;;;;;;;14.47;100.00;102077.97;5114930;28;20482;-72
2021/10/04 06:06:42;;;;;;;17.80;9.70;;;;;;;13.90;100.00;102083.78;5113729;28;20122;-71
2021/10/04 06:09:28;;;;;;;15.35;8.98;;;;;;;14.34;100.00;102092.16;5112050;28;20023;-70
2021/10/04 06:12:14;;;;;;;16.90;10.30;;;;;;;14.53;100.00;102094.59;5112628;28;20463;-72
2021/10/04 06:15:00;;;;;;;19.67;9.07;;;;;;;14.48;100.00;102096.38;5111329;28;20031;-71
2021/10/04 06:17:46;;;;;;;20.48;9.40;;;;;;;14.73;100.00;102103.13;5112098;28;20035;-71
2021/10/04 06:20:32;;;;;;;16.90;8.75;;;;;;;14.76;100.00;102102.22;5112031;28;20024;-71
2021/10/04 06:23:18;;;;;;;18.60;8.65;;;;;;;14.92;100.00;102101.13;5112399;28;20088;-71
2021/10/04 06:26:04;;;;;;;19.30;8.60;;;;;;;15.09;100.00;102104.41;5099276;28;20066;-70
2021/10/04 06:28:50;;;;;;;21.05;9.85;;;;;;;15.45;100.00;102103.91;5113216;28;20035;-70
2021/10/04 06:31:36;;;;;;;20.38;10.80;;;;;;;15.53;100.00;102109.06;5114780;28;20034;-70
2021/10/04 06:34:21;;;;;;;21.20;10.10;;;;;;;15.20;100.00;102112.19;5115032;28;20051;-70
2021/10/04 06:37:07;;;;;;;18.50;9.73;;;;;;;15.20;100.00;102114.81;5113140;28;20394;-70
2021/10/04 06:39:53;;;;;;;15.50;9.43;;;;;;;14.98;100.00;102116.88;5113452;28;20028;-71
2021/10/04 06:42:39;;;;;;;15.25;9.70;;;;;;;15.62;100.00;102120.38;5113213;28;20456;-70
2021/10/04 06:45:25;;;;;;;18.58;9.65;;;;;;;15.35;100.00;102120.78;5113353;28;20031;-70
2021/10/04 06:48:11;;;;;;;24.95;11.45;;;;;;;15.88;100.00;102114.66;5113442;28;20077;-70
2021/10/04 06:50:57;;;;;;;19.63;11.13;;;;;;;15.81;100.00;102123.56;5113610;28;20035;-71
2021/10/04 06:53:42;;;;;;;31.60;16.83;;;;;;;16.10;100.00;102116.00;5099257;28;20035;-71
2021/10/04 06:56:30;;;;;;;28.98;16.10;;;;;;;15.56;100.00;102119.59;5113743;28;20027;-71
2021/10/04 06:59:16;;;;;;;28.23;16.88;;;;;;;15.65;100.00;102130.91;5116318;28;20031;-71
2021/10/04 07:02:03;;;;;;;30.23;17.65;;;;;;;15.51;100.00;102132.00;5103329;28;20118;-71
2021/10/04 07:04:49;;;;;;;24.33;17.42;;;;;;;16.04;100.00;102126.72;5116684;28;20364;-70
2021/10/04 07:07:35;;;;;;;26.60;16.30;;;;;;;16.18;100.00;102135.25;5117080;28;20038;-71
2021/10/04 07:10:20;;;;;;;22.77;15.88;;;;;;;16.07;100.00;102124.03;5117027;28;20063;-70
2021/10/04 07:13:06;;;;;;;23.90;16.23;;;;;;;16.18;100.00;102125.56;5102892;28;20023;-71
2021/10/04 07:15:52;;;;;;;24.80;16.33;;;;;;;16.51;100.00;102124.13;5101749;28;20023;-70
2021/10/04 07:18:39;;;;;;;24.08;16.05;;;;;;;16.28;100.00;102121.84;5102246;28;20118;-72
2021/10/04 07:21:25;;;;;;;30.15;14.57;;;;;;;16.01;100.00;102122.34;5102271;28;20448;-71
2021/10/04 07:24:11;;;;;;;26.88;12.82;;;;;;;15.77;100.00;102122.78;5116755;28;20464;-72
2021/10/04 07:26:58;;;;;;;25.15;13.30;;;;;;;16.22;100.00;102126.38;5117900;28;20123;-71
2021/10/04 07:29:44;;;;;;;22.85;11.98;;;;;;;16.78;100.00;102121.78;5117332;28;20031;-72
2021/10/04 07:32:30;;;;;;;21.83;11.55;;;;;;;16.78;100.00;102132.34;5116658;28;20106;-70
2021/10/04 07:35:16;;;;;;;24.35;11.10;;;;;;;16.72;100.00;102124.53;5117332;28;20027;-72
2021/10/04 07:38:02;;;;;;;25.55;13.18;;;;;;;17.13;100.00;102128.97;5101194;28;20035;-71
2021/10/04 07:40:48;;;;;;;19.05;11.68;;;;;;;17.81;100.00;102125.63;5101847;28;20023;-72
2021/10/04 07:43:34;;;;;;;24.10;13.10;;;;;;;18.29;100.00;102127.84;5115777;28;20026;-71
2021/10/04 07:46:20;;;;;;;30.30;12.48;;;;;;;17.94;100.00;102117.31;5115611;28;20023;-71
2021/10/04 07:49:06;;;;;;;27.15;12.45;;;;;;;18.16;100.00;102122.91;5116063;28;20031;-71
2021/10/04 07:51:52;;;;;;;20.05;11.50;;;;;;;18.87;100.00;102136.00;5116327;28;20455;-72
2021/10/04 07:54:38;;;;;;;19.52;11.02;;;;;;;19.33;100.00;102122.19;5117015;28;20027;-70
2021/10/04 07:57:23;;;;;;;17.35;10.13;;;;;;;19.54;100.00;102124.22;5115844;28;20048;-71
2021/10/04 08:00:10;;;;;;;18.67;10.02;;;;;;;19.16;100.00;102121.81;5114759;28;20078;-70
2021/10/04 08:02:56;;;;;;;15.45;9.23;;;;;;;19.64;100.00;102128.28;5116930;28;20027;-70
2021/10/04 08:05:42;;;;;;;18.60;9.35;;;;;;;19.37;100.00;102123.84;5101711;28;20341;-71
2021/10/04 08:08:27;;;;;;;17.63;9.45;;;;;;;20.00;100.00;102120.88;5103104;28;20360;-70
2021/10/04 08:11:13;;;;;;;19.15;9.63;;;;;;;20.16;100.00;102114.16;5101982;28;20087;-70
2021/10/04 08:13:59;;;;;;;22.67;8.38;;;;;;;20.33;100.00;102115.28;5095964;28;20406;-70
2021/10/04 08:16:45;;;;;;;16.23;7.80;;;;;;;20.50;100.00;102126.25;5080107;28;20028;-70
2021/10/04 08:19:31;;;;;;;17.80;8.05;;;;;;;20.70;100.00;102123.69;5095646;28;20472;-70
2021/10/04 08:22:17;;;;;;;18.58;8.65;;;;;;;20.90;100.00;102130.97;5079317;28;20028;-70
2021/10/04 08:25:04;;;;;;;16.20;8.50;;;;;;;21.25;100.00;102128.69;5096555;28;20070;-72
2021/10/04 08:27:50;;;;;;;16.10;7.40;;;;;;;20.30;100.00;102128.75;5096016;28;20020;-70
2021/10/04 08:30:36;;;;;;;17.08;6.63;;;;;;;20.56;100.00;102123.34;5094412;28;20043;-70
2021/10/04 08:33:22;;;;;;;14.20;7.03;;;;;;;20.79;100.00;102126.03;5095639;28;20016;-71
2021/10/04 08:36:08;;;;;;;11.00;5.65;;;;;;;20.66;100.00;102121.22;5094184;28;20138;-70
2021/10/04 08:38:54;;;;;;;15.80;6.40;;;;;;;20.63;100.00;102116.88;5080250;28;20023;-71
2021/10/04 08:41:39;;;;;;;10.65;5.35;;;;;;;20.26;100.00;102119.13;5095243;28;20024;-70
2021/10/04 08:44:26;;;;;;;9.18;5.05;;;;;;;20.84;100.00;102113.41;5095177;28;20475;-71
2021/10/04 08:47:12;;;;;;;11.57;5.28;;;;;;;21.35;100.00;102105.22;5094976;28;20039;-71
2021/10/04 08:49:58;;;;;;;8.35;4.57;;;;;;;21.33;100.00;102105.28;5095363;28;20034;-71
2021/10/04 08:52:44;;;;;;;14.95;5.78;;;;;;;20.15;100.00;102104.44;5095091;28;20023;-70
2021/10/04 08:55:32;;;;;;;10.50;4.80;;;;;;;20.73;100.00;102106.75;5080047;28;20032;-71
2021/10/04 08:58:18;;;;;;;7.63;4.72;;;;;;;20.89;100.00;102105.25;5095013;28;20020;-71
2021/10/04 09:01:04;;;;;;;8.50;5.05;;;;;;;20.96;99.82;102104.09;5095828;28;20075;-71
2021/10/04 09:03:58;;;;;;;15.70;4.88;;;;;;;20.78;100.00;102110.09;5094517;28;20012;-70
2021/10/04 09:06:44;;;;;;;11.05;5.50;;;;;;;20.92;100.00;102092.69;5094938;28;20051;-71
2021/10/04 09:09:30;;;;;;;12.02;5.50;;;;;;;20.84;100.00;102089.41;5094404;28;20039;-71
2021/10/04 09:12:21;;;;;;;11.70;5.28;;;;;;;21.13;98.65;102094.53;5094664;28;20346;-71
2021/10/04 09:15:22;;;;;;;22.92;7.95;;;;;;;21.40;92.26;102088.09;5094835;28;20031;-70
2021/10/04 09:18:28;;;;;;;11.55;4.93;;;;;;;21.62;91.48;102091.63;5094788;28;20031;-71
2021/10/04 09:21:15;;;;;;;10.45;5.30;;;;;;;21.45;92.30;102091.44;5093905;28;20028;-71
2021/10/04 09:24:10;;;;;;;11.40;4.55;;;;;;;20.96;92.26;102086.31;5094900;28;20028;-72
2021/10/04 09:26:56;;;;;;;8.48;4.35;;;;;;;21.15;91.95;102087.34;5079729;28;20390;-71
2021/10/04 09:29:49;;;;;;;9.65;4.75;;;;;;;21.07;92.25;102078.78;5093730;28;20028;-72
2021/10/04 09:32:40;;;;;;;7.82;4.53;;;;;;;21.10;92.66;102081.31;5094263;28;20024;-72
2021/10/04 09:35:28;;;;;;;14.07;5.07;;;;;;;21.34;88.79;102075.00;5093311;28;20034;-71
2021/10/04 09:38:16;;;;;;;10.20;4.40;;;;;;;21.49;83.96;102074.38;5092726;28;20115;-72
2021/10/04 09:41:03;;;;;;;8.43;4.47;;;;;;;20.92;85.48;102071.38;5092609;28;20024;-72
2021/10/04 09:44:02;;;;;;;11.00;4.10;;;;;;;20.98;84.53;102060.47;5093577;28;20016;-72
2021/10/04 09:46:48;;;;;;;11.50;4.80;;;;;;;21.18;84.15;102057.88;5080446;28;20030;-72
2021/10/04 09:49:51;;;;;;;10.73;4.88;;;;;;;21.33;81.43;102061.72;5093606;28;20035;-72
2021/10/04 09:52:43;;;;;;;15.55;4.38;;;;;;;21.30;81.64;102059.22;5092845;28;20059;-73
2021/10/04 09:55:34;;;;;;;10.82;4.47;;;;;;;21.22;81.92;102046.16;5094605;28;20027;-72
2021/10/04 09:58:29;;;;;;;10.05;4.78;;;;;;;21.06;82.06;102052.19;5092232;28;20060;-73
2021/10/04 10:01:15;;;;;;;7.05;4.00;;;;;;;20.95;82.27;102055.28;5077603;28;20035;-73
2021/10/04 10:04:01;;;;;;;8.60;4.28;;;;;;;20.87;83.35;102051.13;5092438;28;20020;-73
2021/10/04 10:06:47;;;;;;;12.98;3.90;;;;;;;21.30;80.35;102056.53;5094368;28;20046;-73
2021/10/04 10:09:38;;;;;;;5.80;3.80;;;;;;;21.36;80.44;102043.81;5094024;28;20043;-73
2021/10/04 10:12:24;;;;;;;10.85;4.30;;;;;;;21.33;79.98;102051.94;5078724;28;20436;-73
2021/10/04 10:15:26;;;;;;;10.88;4.35;;;;;;;21.46;78.58;102037.16;5078758;28;20031;-73
2021/10/04 10:18:17;;;;;;;8.75;4.05;;;;;;;21.65;77.20;102038.16;5079763;28;20028;-73
2021/10/04 10:21:06;;;;;;;7.88;3.72;;;;;;;22.19;73.54;102034.94;5092954;28;20028;-73
2021/10/04 10:23:57;;;;;;;8.52;3.63;;;;;;;22.46;71.48;102025.66;5092825;28;20024;-74
2021/10/04 10:26:46;;;;;;;5.30;3.33;;;;;;;22.14;68.90;102020.94;5092806;28;20028;-74
2021/10/04 10:29:33;;;;;;;6.25;3.60;;;;;;;22.50;69.42;102012.13;5093869;28;20032;-73
2021/10/04 10:32:20;;;;;;;8.35;3.33;;;;;;;22.34;69.77;102019.06;5092312;28;20073;-73
2021/10/04 10:35:05;;;;;;;6.63;3.33;;;;;;;22.47;67.03;102012.25;5078853;28;20448;-73
2021/10/04 10:37:52;;;;;;;7.30;3.38;;;;;;;22.44;65.31;102012.41;5092420;28;20100;-73
2021/10/04 10:40:38;;;;;;;6.95;3.50;;;;;;;22.72;63.70;102003.97;5092493;28;20024;-73
2021/10/04 10:43:23;;;;;;;8.27;3.58;;;;;;;22.55;62.98;101990.56;5092666;28;20449;-73
2021/10/04 10:46:09;;;;;;;6.05;3.10;;;;;;;22.44;63.87;102006.16;5077694;28;20032;-74
2021/10/04 10:48:55;;;;;;;5.57;3.10;;;;;;;22.79;60.78;101990.25;5092496;28;20024;-73
2021/10/04 10:52:17;;;;;;;5.57;3.33;;;;;;;23.38;58.65;101990.91;5077895;28;20405;-73
2021/10/04 10:55:23;;;;;;;6.78;3.25;;;;;;;22.79;60.81;101979.56;5093525;28;20024;-73
2021/10/04 10:58:13;;;;;;;7.65;5.07;;;;;;;22.73;58.86;101985.22;5093420;28;20024;-74
2021/10/04 11:01:06;;;;;;;8.45;3.17;;;;;;;22.81;58.88;101972.34;5092450;28;20464;-73
2021/10/04 11:03:55;;;;;;;7.10;2.83;;;;;;;23.05;57.30;101975.63;5093981;28;20024;-76
2021/10/04 11:06:43;;;;;;;7.55;2.85;;;;;;;23.11;55.64;101964.66;5093700;28;20024;-73
2021/10/04 11:10:07;;;;;;;8.88;3.60;;;;;;;22.99;55.88;101962.56;5094858;28;20032;-73
2021/10/04 11:13:20;;;;;;;5.63;2.70;;;;;;;22.89;56.23;101958.59;5078784;28;20036;-73
2021/10/04 11:16:06;;;;;;;11.90;3.05;;;;;;;23.47;54.43;101957.47;5062551;28;20035;-72
2021/10/04 11:18:53;;;;;;;7.43;2.83;;;;;;;23.37;53.14;101953.53;5094260;28;20028;-73
2021/10/04 11:21:44;;;;;;;6.55;3.35;;;;;;;22.66;54.84;101951.69;5094895;28;20051;-73
2021/10/04 11:24:30;;;;;;;9.60;2.92;;;;;;;23.18;54.87;101952.69;5080434;28;20027;-74
2021/10/04 11:27:17;;;;;;;7.53;3.00;;;;;;;23.05;55.59;101949.78;5094222;28;20050;-74
2021/10/04 11:30:06;;;;;;;6.97;3.10;;;;;;;23.83;53.99;101947.50;5094719;28;20020;-73
2021/10/04 11:33:08;;;;;;;6.00;2.70;;;;;;;23.00;56.18;101938.44;5094235;28;20032;-74
2021/10/04 11:35:57;;;;;;;6.82;3.00;;;;;;;23.42;55.25;101933.63;5078207;28;20035;-73
2021/10/04 11:38:52;;;;;;;8.55;2.80;;;;;;;23.76;54.10;101924.72;5078949;28;20034;-74
2021/10/04 11:41:51;;;;;;;6.78;2.78;;;;;;;24.23;52.85;101912.31;5094553;28;20016;-74
2021/10/04 11:44:42;;;;;;;9.10;2.80;;;;;;;23.90;52.34;101911.44;5094440;28;20043;-72
2021/10/04 11:47:28;;;;;;;6.32;2.92;;;;;;;23.27;53.63;101915.69;5097711;28;20039;-75
2021/10/04 11:50:17;;;;;;;6.22;3.10;;;;;;;23.84;52.75;101903.75;5097170;28;20056;-74
2021/10/04 11:53:05;;;;;;;6.30;2.50;;;;;;;23.80;51.35;101896.84;5081924;28;20027;-74
2021/10/04 11:55:58;;;;;;;10.50;3.10;;;;;;;23.60;51.88;101901.50;5081828;28;20173;-73
2021/10/04 11:58:50;;;;;;;5.20;2.80;;;;;;;23.27;52.51;101906.81;5096727;28;20020;-73
2021/10/04 12:01:39;;;;;;;6.90;3.00;;;;;;;23.62;51.90;101896.94;5082662;28;20020;-73
2021/10/04 12:04:25;;;;;;;7.93;2.78;;;;;;;24.11;50.58;101904.13;5096378;28;20028;-74
2021/10/04 12:07:11;;;;;;;9.45;2.90;;;;;;;24.13;49.57;101902.19;5096597;28;20047;-73
2021/10/04 12:09:56;;;;;;;9.80;2.95;;;;;;;24.04;50.99;101897.34;5099593;28;20567;-73
2021/10/04 12:12:42;;;;;;;7.47;3.22;;;;;;;23.49;52.09;101891.38;5117035;28;20121;-74
2021/10/04 12:15:29;;;;;;;5.15;2.75;;;;;;;23.36;52.96;101893.78;5117552;28;20031;-73
2021/10/04 12:18:26;;;;;;;6.38;2.90;;;;;;;23.49;52.60;101894.03;5101920;28;20024;-74
2021/10/04 12:21:41;;;;;;;7.05;2.80;;;;;;;23.46;53.32;101893.34;5116754;28;20093;-73
2021/10/04 12:24:47;;;;;;;7.47;3.00;;;;;;;23.47;52.72;101897.75;5118255;28;20024;-72
2021/10/04 12:27:32;;;;;;;4.47;2.55;;;;;;;24.02;51.90;101900.09;5116625;28;20410;-74
2021/10/04 12:30:18;;;;;;;7.15;3.05;;;;;;;23.67;51.98;101894.88;5117013;28;20467;-73
2021/10/04 12:33:04;;;;;;;4.72;2.72;;;;;;;23.16;52.16;101903.78;5117540;28;20046;-74
2021/10/04 12:35:50;;;;;;;4.45;2.60;;;;;;;23.00;53.03;101906.38;5117020;28;20027;-74
2021/10/04 12:38:52;;;;;;;6.25;2.83;;;;;;;23.48;51.36;101904.81;5117445;28;20495;-73
2021/10/04 12:41:44;;;;;;;6.88;3.20;;;;;;;23.36;51.75;101907.16;5116101;28;20023;-74